Time;durP1;ratioP1;P1;durP2;ratioP2;P2;SDS_P1;SDS_P2;PMS_P1;PMS_P2;Temp;Humidity;BMP_temperature;BMP_pressure;BME280_temperature;BME280_humidity;BME280_pressure;Samples;Min_cycle;Max_cycle;Signal;HPM_P1;HPM_P2
2023/11/25 00:01:47;;;;;;;0.30;0.30;;;;;;;;;;5044867;28;20266;-63
2023/11/25 00:04:13;;;;;;;0.30;0.30;;;;;;;;;;5046572;28;20226;-64
2023/11/25 00:06:41;;;;;;;0.20;0.20;;;;;;;;;;5044464;28;20270;-63
2023/11/25 00:09:08;;;;;;;0.30;0.30;;;;;;;;;;5046619;28;20226;-63
2023/11/25 00:11:34;;;;;;;0.30;0.30;;;;;;;;;;5044861;28;20243;-63
2023/11/25 00:14:01;;;;;;;0.30;0.30;;;;;;;;;;5051221;28;20630;-63
2023/11/25 00:16:27;;;;;;;0.30;0.30;;;;;;;;;;5046839;28;20497;-63
2023/11/25 00:18:53;;;;;;;0.30;0.30;;;;;;;;;;5052236;28;20418;-61
2023/11/25 00:21:20;;;;;;;0.23;0.23;;;;;;;;;;5045590;28;20238;-63
2023/11/25 00:23:48;;;;;;;0.30;0.30;;;;;;;;;;5053100;28;20207;-63
2023/11/25 00:26:14;;;;;;;0.30;0.30;;;;;;;;;;5044949;28;20261;-63
2023/11/25 00:28:41;;;;;;;0.20;0.20;;;;;;;;;;5053311;28;20274;-63
2023/11/25 00:31:07;;;;;;;0.30;0.30;;;;;;;;;;5043810;28;20305;-64
2023/11/25 00:33:34;;;;;;;0.20;0.20;;;;;;;;;;5054234;28;20212;-64
2023/11/25 00:36:00;;;;;;;0.30;0.30;;;;;;;;;;5042793;28;20249;-63
2023/11/25 00:38:26;;;;;;;0.30;0.30;;;;;;;;;;5055081;28;20283;-62
2023/11/25 00:40:54;;;;;;;0.30;0.30;;;;;;;;;;5041978;28;20268;-63
2023/11/25 00:43:21;;;;;;;0.20;0.20;;;;;;;;;;5056185;28;20262;-64
2023/11/25 00:45:49;;;;;;;0.23;0.23;;;;;;;;;;5041098;28;20572;-63
2023/11/25 00:48:15;;;;;;;0.20;0.20;;;;;;;;;;5056684;28;20283;-63
2023/11/25 00:50:42;;;;;;;0.27;0.27;;;;;;;;;;5040505;28;20243;-63
2023/11/25 00:53:08;;;;;;;0.30;0.30;;;;;;;;;;5057129;28;20247;-64
2023/11/25 00:55:35;;;;;;;0.30;0.30;;;;;;;;;;5039145;28;20618;-63
2023/11/25 00:58:04;;;;;;;0.23;0.23;;;;;;;;;;5057964;28;20588;-63
2023/11/25 01:00:30;;;;;;;0.30;0.30;;;;;;;;;;5038849;28;20440;-63
2023/11/25 01:02:57;;;;;;;0.30;0.30;;;;;;;;;;5058721;28;20242;-63
2023/11/25 01:05:23;;;;;;;0.30;0.30;;;;;;;;;;5037682;28;20203;-64
2023/11/25 01:07:50;;;;;;;0.30;0.30;;;;;;;;;;5059523;28;20399;-64
2023/11/25 01:10:17;;;;;;;0.30;0.30;;;;;;;;;;5036387;28;20211;-63
2023/11/25 01:12:43;;;;;;;0.30;0.30;;;;;;;;;;5060060;28;20193;-63
2023/11/25 01:15:14;;;;;;;0.30;0.30;;;;;;;;;;5037503;28;20391;-64
2023/11/25 01:17:40;;;;;;;0.30;0.30;;;;;;;;;;5060486;28;20223;-63
2023/11/25 01:20:09;;;;;;;0.23;0.23;;;;;;;;;;5045442;28;20465;-64
2023/11/25 01:22:36;;;;;;;0.27;0.27;;;;;;;;;;5054102;28;20456;-63
2023/11/25 01:25:02;;;;;;;0.30;0.30;;;;;;;;;;5064697;28;20273;-63
2023/11/25 01:27:28;;;;;;;0.30;0.30;;;;;;;;;;5054087;28;20253;-63
2023/11/25 01:29:55;;;;;;;0.30;0.30;;;;;;;;;;5065170;28;20302;-63
2023/11/25 01:32:22;;;;;;;0.30;0.30;;;;;;;;;;5053972;28;20245;-63
2023/11/25 01:34:49;;;;;;;0.20;0.20;;;;;;;;;;5065030;28;20366;-65
2023/11/25 01:37:17;;;;;;;0.30;0.30;;;;;;;;;;5053988;28;20259;-63
2023/11/25 01:39:43;;;;;;;0.30;0.30;;;;;;;;;;5065316;28;20539;-63
2023/11/25 01:42:10;;;;;;;0.20;0.20;;;;;;;;;;5053807;28;20250;-64
2023/11/25 01:44:36;;;;;;;0.30;0.30;;;;;;;;;;5065250;28;20225;-63
2023/11/25 01:47:03;;;;;;;0.20;0.20;;;;;;;;;;5053694;28;20499;-63
2023/11/25 01:49:31;;;;;;;0.30;0.30;;;;;;;;;;5064862;28;20273;-63
2023/11/25 01:51:57;;;;;;;0.30;0.30;;;;;;;;;;5053804;28;20242;-64
2023/11/25 01:54:24;;;;;;;0.27;0.27;;;;;;;;;;5064592;28;20233;-63
2023/11/25 01:56:53;;;;;;;0.30;0.30;;;;;;;;;;5053582;28;20264;-63
2023/11/25 01:59:21;;;;;;;0.30;0.30;;;;;;;;;;5064573;28;20274;-64
2023/11/25 02:01:48;;;;;;;0.30;0.30;;;;;;;;;;5053741;28;20497;-63
2023/11/25 02:04:15;;;;;;;0.30;0.30;;;;;;;;;;5064708;28;20209;-64
2023/11/25 02:06:42;;;;;;;0.30;0.30;;;;;;;;;;5053733;28;20243;-63
2023/11/25 02:09:09;;;;;;;0.20;0.20;;;;;;;;;;5064249;28;20250;-63
2023/11/25 02:11:50;;;;;;;0.30;0.30;;;;;;;;;;5053733;28;20315;-64
2023/11/25 02:14:17;;;;;;;0.30;0.30;;;;;;;;;;5063843;28;20293;-64
2023/11/25 02:16:44;;;;;;;0.30;0.30;;;;;;;;;;5053346;28;20241;-63
2023/11/25 02:19:12;;;;;;;0.20;0.20;;;;;;;;;;5064445;28;20211;-64
2023/11/25 02:21:39;;;;;;;0.30;0.30;;;;;;;;;;5053387;28;20246;-63
2023/11/25 02:24:08;;;;;;;0.20;0.20;;;;;;;;;;5063890;28;20207;-64
2023/11/25 02:26:34;;;;;;;0.30;0.30;;;;;;;;;;5053483;28;20242;-64
2023/11/25 02:29:01;;;;;;;0.30;0.30;;;;;;;;;;5064188;28;20437;-64
2023/11/25 02:31:27;;;;;;;0.30;0.30;;;;;;;;;;5053176;28;20249;-63
2023/11/25 02:33:53;;;;;;;0.30;0.30;;;;;;;;;;5063903;28;20234;-64
2023/11/25 02:36:20;;;;;;;0.30;0.30;;;;;;;;;;5052398;28;20246;-63
2023/11/25 02:38:46;;;;;;;0.20;0.20;;;;;;;;;;5063780;28;20427;-64
2023/11/25 02:41:14;;;;;;;0.30;0.30;;;;;;;;;;5053181;28;20247;-64
2023/11/25 02:43:40;;;;;;;0.30;0.30;;;;;;;;;;5063779;28;20535;-63
2023/11/25 02:46:07;;;;;;;0.30;0.30;;;;;;;;;;5053261;28;20245;-64
2023/11/25 02:48:35;;;;;;;0.27;0.27;;;;;;;;;;5063642;28;20206;-63
2023/11/25 02:51:02;;;;;;;0.30;0.30;;;;;;;;;;5053315;28;20262;-63
2023/11/25 02:53:30;;;;;;;0.30;0.30;;;;;;;;;;5063470;28;20257;-63
2023/11/25 02:55:56;;;;;;;0.30;0.30;;;;;;;;;;5053115;28;20246;-63
2023/11/25 02:58:24;;;;;;;0.30;0.30;;;;;;;;;;5063110;28;20404;-63
2023/11/25 03:01:00;;;;;;;0.30;0.30;;;;;;;;;;5053230;28;20314;-64
2023/11/25 03:03:27;;;;;;;0.30;0.30;;;;;;;;;;5063287;28;20227;-63
2023/11/25 03:05:53;;;;;;;0.30;0.30;;;;;;;;;;5052850;28;20251;-63
2023/11/25 03:08:22;;;;;;;0.30;0.30;;;;;;;;;;5063083;28;20207;-63
2023/11/25 03:10:53;;;;;;;0.30;0.30;;;;;;;;;;5053021;28;20243;-63
2023/11/25 03:13:19;;;;;;;0.30;0.30;;;;;;;;;;5062908;28;20202;-63
2023/11/25 03:15:47;;;;;;;0.30;0.30;;;;;;;;;;5053177;28;20491;-64
2023/11/25 03:18:13;;;;;;;0.30;0.30;;;;;;;;;;5062602;28;20273;-63
2023/11/25 03:20:40;;;;;;;0.30;0.30;;;;;;;;;;5052972;28;20313;-64
2023/11/25 03:23:06;;;;;;;0.30;0.30;;;;;;;;;;5062478;28;20207;-63
2023/11/25 03:25:33;;;;;;;0.30;0.30;;;;;;;;;;5053143;28;20268;-64
2023/11/25 03:28:04;;;;;;;0.30;0.30;;;;;;;;;;5062767;28;20222;-63
2023/11/25 03:30:31;;;;;;;0.30;0.30;;;;;;;;;;5053009;28;20250;-64
2023/11/25 03:32:58;;;;;;;0.30;0.30;;;;;;;;;;5062407;28;20229;-63
2023/11/25 03:35:25;;;;;;;0.30;0.30;;;;;;;;;;5052962;28;20234;-63
2023/11/25 03:37:51;;;;;;;0.30;0.30;;;;;;;;;;5062223;28;20202;-63
2023/11/25 03:40:18;;;;;;;0.20;0.20;;;;;;;;;;5052987;28;20294;-64
2023/11/25 03:42:44;;;;;;;0.30;0.30;;;;;;;;;;5062135;28;20261;-65
2023/11/25 03:45:12;;;;;;;0.30;0.30;;;;;;;;;;5053248;28;20245;-63
2023/11/25 03:47:38;;;;;;;0.27;0.27;;;;;;;;;;5064893;28;20227;-63
2023/11/25 03:50:07;;;;;;;0.30;0.30;;;;;;;;;;5067122;28;20239;-64
2023/11/25 03:52:33;;;;;;;0.30;0.30;;;;;;;;;;5035717;28;20238;-63
2023/11/25 03:55:02;;;;;;;0.30;0.30;;;;;;;;;;5047344;28;20472;-63
2023/11/25 03:57:28;;;;;;;0.20;0.20;;;;;;;;;;5052326;28;20243;-63
2023/11/25 03:59:54;;;;;;;0.30;0.30;;;;;;;;;;5047343;28;20459;-64
2023/11/25 04:02:21;;;;;;;0.30;0.30;;;;;;;;;;5052468;28;20250;-64
2023/11/25 04:04:47;;;;;;;0.30;0.30;;;;;;;;;;5047291;28;20208;-63
2023/11/25 04:07:15;;;;;;;0.20;0.20;;;;;;;;;;5052410;28;20304;-64
2023/11/25 04:09:42;;;;;;;0.20;0.20;;;;;;;;;;5047229;28;20393;-64
2023/11/25 04:12:10;;;;;;;0.30;0.30;;;;;;;;;;5052113;28;20289;-63
2023/11/25 04:14:36;;;;;;;0.20;0.20;;;;;;;;;;5047055;28;20229;-63
2023/11/25 04:17:03;;;;;;;0.20;0.20;;;;;;;;;;5051394;28;20248;-63
2023/11/25 04:19:29;;;;;;;0.30;0.30;;;;;;;;;;5047697;28;20435;-63
2023/11/25 04:21:58;;;;;;;0.20;0.20;;;;;;;;;;5050534;28;20305;-63
2023/11/25 04:24:27;;;;;;;0.20;0.20;;;;;;;;;;5048129;28;20212;-63
2023/11/25 04:26:53;;;;;;;0.23;0.23;;;;;;;;;;5049913;28;20239;-64
2023/11/25 04:29:20;;;;;;;0.20;0.20;;;;;;;;;;5048786;28;20215;-64
2023/11/25 04:31:48;;;;;;;0.30;0.30;;;;;;;;;;5048749;28;20249;-63
2023/11/25 04:34:15;;;;;;;0.30;0.30;;;;;;;;;;5049262;28;20205;-64
2023/11/25 04:36:41;;;;;;;0.20;0.20;;;;;;;;;;5048141;28;20289;-63
2023/11/25 04:39:08;;;;;;;0.23;0.23;;;;;;;;;;5049925;28;20234;-63
2023/11/25 04:41:39;;;;;;;0.20;0.20;;;;;;;;;;5047375;28;20498;-63
2023/11/25 04:44:06;;;;;;;0.30;0.30;;;;;;;;;;5049965;28;20234;-64
2023/11/25 04:46:32;;;;;;;0.30;0.30;;;;;;;;;;5046850;28;20553;-64
2023/11/25 04:48:59;;;;;;;0.20;0.20;;;;;;;;;;5051141;28;20207;-63
2023/11/25 04:51:25;;;;;;;0.30;0.30;;;;;;;;;;5045924;28;20467;-63
2023/11/25 04:53:51;;;;;;;0.20;0.20;;;;;;;;;;5051867;28;20516;-63
2023/11/25 04:56:18;;;;;;;0.20;0.20;;;;;;;;;;5044809;28;20259;-63
2023/11/25 04:58:45;;;;;;;0.20;0.20;;;;;;;;;;5051367;28;20203;-63
2023/11/25 05:01:12;;;;;;;0.20;0.20;;;;;;;;;;5043860;28;20291;-64
2023/11/25 05:03:40;;;;;;;0.20;0.20;;;;;;;;;;5052980;28;20205;-63
2023/11/25 05:06:09;;;;;;;0.30;0.30;;;;;;;;;;5043122;28;20243;-64
2023/11/25 05:08:35;;;;;;;0.30;0.30;;;;;;;;;;5053306;28;20212;-63
2023/11/25 05:11:02;;;;;;;0.23;0.23;;;;;;;;;;5042524;28;20309;-64
2023/11/25 05:13:28;;;;;;;0.30;0.30;;;;;;;;;;5054210;28;20277;-63
2023/11/25 05:15:57;;;;;;;0.30;0.30;;;;;;;;;;5041790;28;20594;-63
2023/11/25 05:18:24;;;;;;;0.20;0.20;;;;;;;;;;5054649;28;20211;-63
2023/11/25 05:20:50;;;;;;;0.30;0.30;;;;;;;;;;5041130;28;20259;-64
2023/11/25 05:23:16;;;;;;;0.30;0.30;;;;;;;;;;5055829;28;20279;-63
2023/11/25 05:25:43;;;;;;;0.27;0.27;;;;;;;;;;5040043;28;20314;-63
2023/11/25 05:28:09;;;;;;;0.20;0.20;;;;;;;;;;5056612;28;20247;-65
2023/11/25 05:30:35;;;;;;;0.30;0.30;;;;;;;;;;5038671;28;20243;-63
2023/11/25 05:33:03;;;;;;;0.23;0.23;;;;;;;;;;5057322;28;20263;-63
2023/11/25 05:35:29;;;;;;;0.30;0.30;;;;;;;;;;5037895;28;20295;-64
2023/11/25 05:37:56;;;;;;;0.20;0.20;;;;;;;;;;5057867;28;20231;-63
2023/11/25 05:40:22;;;;;;;0.30;0.30;;;;;;;;;;5037155;28;20227;-64
2023/11/25 05:42:53;;;;;;;0.30;0.30;;;;;;;;;;5058555;28;20270;-66
2023/11/25 05:45:20;;;;;;;0.20;0.20;;;;;;;;;;5036625;28;20191;-63
2023/11/25 05:47:46;;;;;;;0.30;0.30;;;;;;;;;;5059163;28;20387;-63
2023/11/25 05:50:17;;;;;;;0.30;0.30;;;;;;;;;;5035780;28;20208;-64
2023/11/25 05:52:43;;;;;;;0.20;0.20;;;;;;;;;;5059271;28;20195;-63
2023/11/25 05:55:10;;;;;;;0.27;0.27;;;;;;;;;;5034616;28;20207;-64
2023/11/25 05:57:37;;;;;;;0.30;0.30;;;;;;;;;;5043717;28;20547;-63
2023/11/25 06:00:03;;;;;;;0.20;0.20;;;;;;;;;;5044646;28;20258;-63
2023/11/25 06:02:30;;;;;;;0.30;0.30;;;;;;;;;;5033585;28;20252;-63
2023/11/25 06:04:56;;;;;;;0.20;0.20;;;;;;;;;;5045046;28;20274;-63
2023/11/25 06:07:24;;;;;;;0.30;0.30;;;;;;;;;;5033613;28;20263;-63
2023/11/25 06:09:50;;;;;;;0.23;0.23;;;;;;;;;;5044861;28;20246;-63
2023/11/25 06:12:16;;;;;;;0.33;0.33;;;;;;;;;;5033471;28;20315;-63
2023/11/25 06:14:43;;;;;;;0.30;0.30;;;;;;;;;;5044836;28;20234;-63
2023/11/25 06:17:09;;;;;;;0.27;0.27;;;;;;;;;;5033226;28;20250;-64
2023/11/25 06:19:36;;;;;;;0.20;0.20;;;;;;;;;;5044678;28;20275;-63
2023/11/25 06:22:04;;;;;;;0.30;0.30;;;;;;;;;;5033238;28;20243;-63
2023/11/25 06:24:32;;;;;;;0.30;0.30;;;;;;;;;;5044191;28;20207;-63
2023/11/25 06:26:58;;;;;;;0.30;0.30;;;;;;;;;;5033249;28;20266;-63
2023/11/25 06:29:24;;;;;;;0.20;0.20;;;;;;;;;;5044400;28;20207;-63
2023/11/25 06:31:51;;;;;;;0.30;0.30;;;;;;;;;;5033179;28;20242;-63
2023/11/25 06:34:18;;;;;;;0.27;0.27;;;;;;;;;;5044209;28;20208;-64
2023/11/25 06:36:46;;;;;;;0.30;0.30;;;;;;;;;;5033290;28;20244;-63
2023/11/25 06:39:14;;;;;;;0.20;0.20;;;;;;;;;;5043612;28;20570;-63
2023/11/25 06:41:48;;;;;;;0.30;0.30;;;;;;;;;;5033343;28;20315;-63
2023/11/25 06:44:15;;;;;;;0.30;0.30;;;;;;;;;;5044154;28;20444;-63
2023/11/25 06:46:41;;;;;;;0.20;0.20;;;;;;;;;;5033008;28;20302;-63
2023/11/25 06:49:07;;;;;;;0.30;0.30;;;;;;;;;;5043569;28;20274;-63
2023/11/25 06:51:34;;;;;;;0.27;0.27;;;;;;;;;;5033315;28;20277;-63
2023/11/25 06:54:00;;;;;;;0.30;0.30;;;;;;;;;;5043500;28;20239;-63
2023/11/25 06:56:26;;;;;;;0.20;0.20;;;;;;;;;;5032953;28;20262;-63
2023/11/25 06:58:55;;;;;;;0.30;0.30;;;;;;;;;;5043542;28;20207;-63
2023/11/25 07:01:22;;;;;;;0.30;0.30;;;;;;;;;;5033216;28;20627;-63
2023/11/25 07:03:49;;;;;;;0.30;0.30;;;;;;;;;;5043472;28;20212;-63
2023/11/25 07:06:17;;;;;;;0.20;0.20;;;;;;;;;;5033148;28;20250;-63
2023/11/25 07:08:44;;;;;;;0.20;0.20;;;;;;;;;;5043384;28;20410;-63
2023/11/25 07:11:13;;;;;;;0.23;0.23;;;;;;;;;;5033177;28;20454;-64
2023/11/25 07:13:39;;;;;;;0.30;0.30;;;;;;;;;;5042929;28;20275;-64
2023/11/25 07:16:08;;;;;;;0.30;0.30;;;;;;;;;;5033080;28;20434;-63
2023/11/25 07:18:35;;;;;;;0.23;0.23;;;;;;;;;;5042923;28;20214;-63
2023/11/25 07:21:01;;;;;;;0.30;0.30;;;;;;;;;;5032727;28;20246;-64
2023/11/25 07:23:27;;;;;;;0.20;0.20;;;;;;;;;;5042695;28;20500;-63
2023/11/25 07:25:55;;;;;;;0.30;0.30;;;;;;;;;;5033050;28;20248;-64
2023/11/25 07:28:21;;;;;;;0.20;0.20;;;;;;;;;;5042606;28;20206;-64
2023/11/25 07:30:48;;;;;;;2.67;0.60;;;;;;;;;;5033123;28;20266;-63
2023/11/25 07:33:16;;;;;;;0.30;0.30;;;;;;;;;;5042610;28;20204;-64
2023/11/25 07:35:42;;;;;;;0.30;0.30;;;;;;;;;;5033136;28;20243;-64
2023/11/25 07:38:09;;;;;;;0.30;0.30;;;;;;;;;;5042371;28;20226;-63
2023/11/25 07:40:35;;;;;;;0.23;0.23;;;;;;;;;;5032925;28;20241;-63
2023/11/25 07:43:03;;;;;;;0.20;0.20;;;;;;;;;;5042406;28;20267;-63
2023/11/25 07:45:29;;;;;;;0.30;0.30;;;;;;;;;;5033181;28;20295;-63
2023/11/25 07:47:56;;;;;;;0.23;0.23;;;;;;;;;;5042242;28;20269;-63
2023/11/25 07:50:23;;;;;;;0.20;0.20;;;;;;;;;;5033230;28;20508;-63
2023/11/25 07:52:50;;;;;;;0.23;0.23;;;;;;;;;;5042501;28;20227;-63
2023/11/25 07:55:17;;;;;;;0.30;0.30;;;;;;;;;;5032919;28;20245;-64
2023/11/25 07:57:43;;;;;;;0.20;0.20;;;;;;;;;;5042044;28;20226;-63
2023/11/25 08:00:15;;;;;;;0.20;0.20;;;;;;;;;;5039362;28;20538;-64
2023/11/25 08:02:41;;;;;;;0.20;0.20;;;;;;;;;;5042336;28;20249;-64
2023/11/25 08:05:08;;;;;;;0.20;0.20;;;;;;;;;;5042941;28;20234;-64
2023/11/25 08:07:36;;;;;;;0.20;0.20;;;;;;;;;;5032146;28;20279;-63
2023/11/25 08:10:04;;;;;;;0.20;0.20;;;;;;;;;;5043060;28;20235;-64
2023/11/25 08:12:31;;;;;;;0.20;0.20;;;;;;;;;;5048570;28;20539;-64
2023/11/25 08:14:57;;;;;;;0.20;0.20;;;;;;;;;;5043001;28;20262;-64
2023/11/25 08:17:24;;;;;;;0.20;0.20;;;;;;;;;;5048356;28;20700;-63
2023/11/25 08:19:50;;;;;;;0.20;0.20;;;;;;;;;;5043361;28;20449;-64
2023/11/25 08:22:17;;;;;;;0.27;0.27;;;;;;;;;;5048505;28;20457;-63
2023/11/25 08:24:45;;;;;;;0.20;0.20;;;;;;;;;;5042955;28;20215;-67
2023/11/25 08:27:11;;;;;;;0.30;0.30;;;;;;;;;;5048346;28;20243;-75
2023/11/25 08:29:37;;;;;;;0.30;0.30;;;;;;;;;;5043152;28;20515;-65
2023/11/25 08:32:05;;;;;;;0.30;0.30;;;;;;;;;;5047634;28;20243;-69
2023/11/25 08:34:32;;;;;;;0.30;0.30;;;;;;;;;;5045306;28;20523;-66
2023/11/25 08:36:58;;;;;;;0.30;0.30;;;;;;;;;;5050420;28;20236;-66
2023/11/25 08:39:26;;;;;;;0.20;0.20;;;;;;;;;;5047547;28;20259;-65
2023/11/25 08:41:54;;;;;;;0.20;0.20;;;;;;;;;;5049680;28;20242;-68
2023/11/25 08:44:21;;;;;;;0.20;0.20;;;;;;;;;;5047955;28;20206;-67
2023/11/25 08:46:48;;;;;;;0.20;0.20;;;;;;;;;;5048789;28;20235;-67
2023/11/25 08:49:14;;;;;;;0.20;0.20;;;;;;;;;;5049049;28;20211;-67
2023/11/25 08:51:45;;;;;;;0.20;0.20;;;;;;;;;;5048210;28;20242;-67
2023/11/25 08:54:12;;;;;;;0.30;0.30;;;;;;;;;;5049293;28;20291;-67
2023/11/25 08:56:40;;;;;;;0.20;0.20;;;;;;;;;;5047544;28;20317;-66
2023/11/25 08:59:08;;;;;;;0.20;0.20;;;;;;;;;;5049577;28;20239;-67
2023/11/25 09:01:37;;;;;;;0.20;0.20;;;;;;;;;;5046979;28;20266;-67
2023/11/25 09:04:06;;;;;;;0.20;0.20;;;;;;;;;;5050250;28;20376;-67
2023/11/25 09:06:33;;;;;;;0.20;0.20;;;;;;;;;;5046771;28;20548;-67
2023/11/25 09:08:59;;;;;;;0.27;0.27;;;;;;;;;;5050658;28;20275;-66
2023/11/25 09:11:26;;;;;;;0.20;0.20;;;;;;;;;;5045832;28;20254;-66
2023/11/25 09:13:54;;;;;;;0.20;0.20;;;;;;;;;;5051351;28;20282;-67
2023/11/25 09:16:22;;;;;;;0.20;0.20;;;;;;;;;;5045213;28;20307;-67
2023/11/25 09:18:49;;;;;;;0.20;0.20;;;;;;;;;;5051850;28;20266;-68
2023/11/25 09:21:16;;;;;;;0.20;0.20;;;;;;;;;;5044269;28;20249;-67
2023/11/25 09:23:43;;;;;;;0.20;0.20;;;;;;;;;;5052148;28;20249;-67
2023/11/25 09:26:09;;;;;;;0.20;0.20;;;;;;;;;;5043080;28;20251;-66
2023/11/25 09:28:36;;;;;;;0.20;0.20;;;;;;;;;;5053068;28;20213;-68
2023/11/25 09:31:02;;;;;;;0.20;0.20;;;;;;;;;;5042318;28;20307;-68
2023/11/25 09:33:30;;;;;;;0.23;0.23;;;;;;;;;;5053905;28;20215;-67
2023/11/25 09:35:56;;;;;;;0.20;0.20;;;;;;;;;;5041374;28;20307;-67
2023/11/25 09:38:22;;;;;;;0.20;0.20;;;;;;;;;;5054428;28;20248;-68
2023/11/25 09:40:49;;;;;;;0.23;0.23;;;;;;;;;;5040377;28;20322;-67
2023/11/25 09:43:17;;;;;;;0.30;0.30;;;;;;;;;;5055334;28;20275;-67
2023/11/25 09:45:44;;;;;;;0.20;0.20;;;;;;;;;;5039448;28;20254;-68
2023/11/25 09:48:11;;;;;;;0.20;0.20;;;;;;;;;;5055686;28;20231;-67
2023/11/25 09:50:38;;;;;;;0.20;0.20;;;;;;;;;;5038659;28;20250;-67
2023/11/25 09:53:09;;;;;;;0.20;0.20;;;;;;;;;;5056842;28;20234;-67
2023/11/25 09:55:36;;;;;;;0.23;0.23;;;;;;;;;;5038500;28;20258;-68
2023/11/25 09:58:05;;;;;;;0.20;0.20;;;;;;;;;;5056618;28;20234;-67
2023/11/25 10:00:32;;;;;;;0.20;0.20;;;;;;;;;;5037902;28;20442;-67
2023/11/25 10:03:00;;;;;;;0.20;0.20;;;;;;;;;;5057241;28;20196;-67
2023/11/25 10:05:27;;;;;;;0.20;0.20;;;;;;;;;;5036979;28;20235;-67
2023/11/25 10:07:55;;;;;;;0.20;0.20;;;;;;;;;;5057901;28;20196;-67
2023/11/25 10:10:23;;;;;;;0.20;0.20;;;;;;;;;;5036154;28;20235;-67
2023/11/25 10:12:50;;;;;;;0.20;0.20;;;;;;;;;;5058076;28;20238;-67
2023/11/25 10:15:16;;;;;;;2.63;1.27;;;;;;;;;;5035768;28;20374;-67
2023/11/25 10:17:44;;;;;;;0.20;0.20;;;;;;;;;;5058795;28;20285;-67
2023/11/25 10:20:18;;;;;;;0.20;0.20;;;;;;;;;;5034598;28;20215;-67
2023/11/25 10:22:46;;;;;;;0.30;0.30;;;;;;;;;;5058819;28;20227;-67
2023/11/25 10:25:15;;;;;;;0.30;0.30;;;;;;;;;;5034988;28;20212;-67
2023/11/25 10:27:41;;;;;;;0.20;0.20;;;;;;;;;;5059155;28;20534;-67
2023/11/25 10:30:08;;;;;;;0.23;0.23;;;;;;;;;;5044236;28;20274;-67
2023/11/25 10:32:34;;;;;;;0.20;0.20;;;;;;;;;;5052936;28;20219;-67
2023/11/25 10:35:01;;;;;;;0.20;0.20;;;;;;;;;;5064130;28;20274;-67
2023/11/25 10:37:27;;;;;;;0.20;0.20;;;;;;;;;;5052934;28;20235;-66
2023/11/25 10:39:55;;;;;;;0.30;0.30;;;;;;;;;;5064225;28;20278;-66
2023/11/25 10:42:23;;;;;;;0.20;0.20;;;;;;;;;;5052846;28;20244;-67
2023/11/25 10:44:51;;;;;;;0.20;0.20;;;;;;;;;;5064108;28;20503;-66
2023/11/25 10:47:28;;;;;;;0.20;0.20;;;;;;;;;;5052784;28;20239;-67
2023/11/25 10:49:55;;;;;;;0.30;0.30;;;;;;;;;;5063727;28;20266;-67
2023/11/25 10:52:22;;;;;;;0.20;0.20;;;;;;;;;;5052697;28;20277;-68
2023/11/25 10:54:49;;;;;;;0.20;0.20;;;;;;;;;;5063673;28;20286;-67
2023/11/25 10:57:15;;;;;;;0.20;0.20;;;;;;;;;;5051691;28;20240;-66
2023/11/25 10:59:43;;;;;;;0.20;0.20;;;;;;;;;;5063695;28;20207;-66
2023/11/25 11:02:13;;;;;;;0.27;0.27;;;;;;;;;;5052487;28;20313;-67
2023/11/25 11:04:42;;;;;;;0.23;0.23;;;;;;;;;;5064145;28;20401;-67
2023/11/25 11:07:14;;;;;;;0.30;0.30;;;;;;;;;;5052562;28;20503;-67
2023/11/25 11:09:43;;;;;;;0.20;0.20;;;;;;;;;;5063870;28;20424;-67
2023/11/25 11:12:16;;;;;;;0.20;0.20;;;;;;;;;;5052552;28;20277;-67
2023/11/25 11:15:00;;;;;;;0.20;0.20;;;;;;;;;;5063481;28;20226;-67
2023/11/25 11:17:31;;;;;;;0.20;0.20;;;;;;;;;;5052539;28;20580;-67
2023/11/25 11:19:59;;;;;;;0.20;0.20;;;;;;;;;;5063486;28;20195;-67
2023/11/25 11:22:26;;;;;;;0.20;0.20;;;;;;;;;;5052281;28;20236;-67
2023/11/25 11:25:02;;;;;;;0.20;0.20;;;;;;;;;;5063756;28;20430;-65
2023/11/25 11:27:32;;;;;;;0.20;0.20;;;;;;;;;;5052260;28;20280;-67
2023/11/25 11:30:03;;;;;;;0.20;0.20;;;;;;;;;;5063555;28;20445;-65
2023/11/25 11:32:33;;;;;;;0.20;0.20;;;;;;;;;;5052342;28;20272;-66
2023/11/25 11:35:01;;;;;;;0.20;0.20;;;;;;;;;;5063285;28;20506;-65
2023/11/25 11:37:36;;;;;;;0.63;0.63;;;;;;;;;;5052074;28;20239;-65
2023/11/25 11:40:04;;;;;;;0.20;0.20;;;;;;;;;;5063419;28;20223;-65
2023/11/25 11:42:32;;;;;;;0.20;0.20;;;;;;;;;;5052064;28;20259;-65
2023/11/25 11:45:15;;;;;;;0.20;0.20;;;;;;;;;;5063488;28;20211;-65
2023/11/25 11:47:44;;;;;;;0.20;0.20;;;;;;;;;;5056295;28;20269;-64
2023/11/25 11:50:11;;;;;;;0.20;0.20;;;;;;;;;;5053029;28;20511;-65
2023/11/25 11:52:47;;;;;;;0.20;0.20;;;;;;;;;;5062464;28;20207;-65
2023/11/25 11:55:32;;;;;;;0.20;0.20;;;;;;;;;;5053076;28;20527;-64
2023/11/25 11:58:05;;;;;;;0.30;0.30;;;;;;;;;;5062469;28;20229;-65
2023/11/25 12:00:35;;;;;;;0.30;0.30;;;;;;;;;;5052715;28;20238;-65
2023/11/25 12:03:02;;;;;;;0.20;0.20;;;;;;;;;;5062497;28;20448;-65
2023/11/25 12:05:28;;;;;;;0.20;0.20;;;;;;;;;;5052696;28;20255;-65
2023/11/25 12:07:54;;;;;;;0.20;0.20;;;;;;;;;;5063742;28;20263;-65
2023/11/25 12:10:21;;;;;;;0.27;0.27;;;;;;;;;;5056761;28;20207;-64
2023/11/25 12:12:49;;;;;;;0.30;0.30;;;;;;;;;;5066205;28;20195;-64
2023/11/25 12:15:17;;;;;;;0.20;0.20;;;;;;;;;;5056659;28;20204;-63
2023/11/25 12:17:45;;;;;;;0.20;0.20;;;;;;;;;;5066047;28;20211;-64
2023/11/25 12:20:13;;;;;;;0.30;0.30;;;;;;;;;;5056375;28;20274;-63
2023/11/25 12:22:39;;;;;;;0.20;0.20;;;;;;;;;;5065728;28;20195;-64
2023/11/25 12:25:06;;;;;;;0.20;0.20;;;;;;;;;;5066451;28;20244;-64
2023/11/25 12:27:34;;;;;;;0.20;0.20;;;;;;;;;;5055493;28;20302;-63
2023/11/25 12:30:01;;;;;;;0.20;0.20;;;;;;;;;;5066745;28;20207;-64
2023/11/25 12:32:27;;;;;;;0.27;0.27;;;;;;;;;;5055517;28;20253;-70
2023/11/25 12:34:55;;;;;;;0.20;0.20;;;;;;;;;;5066705;28;20273;-71
2023/11/25 12:37:21;;;;;;;0.20;0.20;;;;;;;;;;5055225;28;20303;-64
2023/11/25 12:39:48;;;;;;;0.20;0.20;;;;;;;;;;5066546;28;20459;-64
2023/11/25 12:42:15;;;;;;;0.20;0.20;;;;;;;;;;5055156;28;20261;-64
2023/11/25 12:44:47;;;;;;;0.20;0.20;;;;;;;;;;5066497;28;20278;-64
2023/11/25 12:47:15;;;;;;;0.20;0.20;;;;;;;;;;5055116;28;20249;-67
2023/11/25 12:49:41;;;;;;;0.20;0.20;;;;;;;;;;5066377;28;20207;-66
2023/11/25 12:52:18;;;;;;;0.20;0.20;;;;;;;;;;5054900;28;20236;-68
2023/11/25 12:54:45;;;;;;;0.20;0.20;;;;;;;;;;5065964;28;20219;-67
2023/11/25 12:57:12;;;;;;;0.20;0.20;;;;;;;;;;5054626;28;20566;-65
2023/11/25 12:59:38;;;;;;;0.20;0.20;;;;;;;;;;5065734;28;20204;-67
2023/11/25 13:02:06;;;;;;;0.20;0.20;;;;;;;;;;5054775;28;20247;-73
2023/11/25 13:10:26;;;;;;;0.20;0.20;;;;;;;;;;5131240;27;20383;-64
2023/11/25 13:26:25;;;;;;;0.20;0.20;;;;;;;;;;5130798;27;20619;-70
2023/11/25 13:28:51;;;;;;;0.30;0.30;;;;;;;;;;5113332;28;20285;-72
2023/11/25 13:31:50;;;;;;;0.20;0.20;;;;;;;;;;5123260;27;20607;-75
2023/11/25 13:34:17;;;;;;;0.20;0.20;;;;;;;;;;5104330;28;20225;-81
2023/11/25 13:36:44;;;;;;;0.20;0.20;;;;;;;;;;5090291;28;20257;-77
2023/11/25 13:39:14;;;;;;;0.20;0.20;;;;;;;;;;5100848;28;20295;-73
2023/11/25 13:41:40;;;;;;;0.20;0.20;;;;;;;;;;5103404;28;20240;-78
2023/11/25 13:44:07;;;;;;;0.20;0.20;;;;;;;;;;5104748;28;20232;-78
2023/11/25 13:46:33;;;;;;;0.30;0.30;;;;;;;;;;5102300;28;20237;-80
2023/11/25 14:02:02;;;;;;;0.20;0.20;;;;;;;;;;5184009;27;20315;-77
2023/11/25 14:04:31;;;;;;;0.20;0.20;;;;;;;;;;5163222;27;20200;-76
2023/11/25 14:06:59;;;;;;;0.23;0.23;;;;;;;;;;5105258;27;20242;-77
2023/11/25 14:09:26;;;;;;;0.20;0.20;;;;;;;;;;5101365;28;20272;-76
2023/11/25 14:11:53;;;;;;;0.20;0.20;;;;;;;;;;5075374;28;20398;-76
2023/11/25 14:14:20;;;;;;;0.20;0.20;;;;;;;;;;5098891;28;20234;-76
2023/11/25 14:16:49;;;;;;;0.20;0.20;;;;;;;;;;5076043;28;20254;-76
2023/11/25 14:19:18;;;;;;;0.20;0.20;;;;;;;;;;5098303;28;20237;-76
2023/11/25 14:21:44;;;;;;;0.20;0.20;;;;;;;;;;5076521;28;20243;-76
2023/11/25 14:24:11;;;;;;;0.20;0.20;;;;;;;;;;5097596;28;20210;-76
2023/11/25 14:26:37;;;;;;;0.20;0.20;;;;;;;;;;5077360;28;20299;-76
2023/11/25 14:29:04;;;;;;;0.20;0.20;;;;;;;;;;5096222;28;20191;-76
2023/11/25 14:31:32;;;;;;;0.20;0.20;;;;;;;;;;5078329;28;20497;-76
2023/11/25 14:33:58;;;;;;;0.20;0.20;;;;;;;;;;5095677;28;20210;-76
2023/11/25 14:36:27;;;;;;;0.20;0.20;;;;;;;;;;5079218;28;20438;-76
2023/11/25 14:38:53;;;;;;;0.20;0.20;;;;;;;;;;5094290;28;20218;-76
2023/11/25 14:41:22;;;;;;;0.20;0.20;;;;;;;;;;5079736;28;20465;-76
2023/11/25 14:43:49;;;;;;;0.30;0.30;;;;;;;;;;5093885;28;20205;-77
2023/11/25 14:46:16;;;;;;;0.20;0.20;;;;;;;;;;5079960;28;20305;-76
2023/11/25 14:48:43;;;;;;;0.20;0.20;;;;;;;;;;5092736;28;20203;-76
2023/11/25 14:51:09;;;;;;;0.20;0.20;;;;;;;;;;5081118;28;20247;-77
2023/11/25 14:53:38;;;;;;;0.20;0.20;;;;;;;;;;5091504;28;20210;-77
2023/11/25 14:56:06;;;;;;;0.20;0.20;;;;;;;;;;5081523;28;20426;-76
2023/11/25 14:58:32;;;;;;;0.20;0.20;;;;;;;;;;5091299;28;20396;-76
2023/11/25 15:00:59;;;;;;;0.20;0.20;;;;;;;;;;5082096;28;20296;-76
2023/11/25 15:03:27;;;;;;;0.20;0.20;;;;;;;;;;5090027;28;20203;-76
2023/11/25 15:05:53;;;;;;;0.20;0.20;;;;;;;;;;5083167;28;20245;-76
2023/11/25 15:08:19;;;;;;;0.20;0.20;;;;;;;;;;5089097;28;20202;-76
2023/11/25 15:10:51;;;;;;;0.20;0.20;;;;;;;;;;5083768;28;20243;-77
2023/11/25 15:13:18;;;;;;;0.20;0.20;;;;;;;;;;5074815;28;20203;-76
2023/11/25 15:15:46;;;;;;;0.20;0.20;;;;;;;;;;5070811;28;20522;-77
2023/11/25 15:18:12;;;;;;;0.20;0.20;;;;;;;;;;5074437;28;20270;-77